Mississippi Voyager — WDD7294 — position and weather

sailwx.info

Track history (hours):
 
Tides and Currents Weather Stations Pressure Air Temp Water Temp Dewpoint Dewpoint Depression Visibility Wind Speed Wind Dir Waves Ship Positions

Mississippi Voyager

Owner: Chevron USA Inc., Washington, DC. More information available from US FCC via Universal Licensing System and Coast Guard Vessel Documentation Center.

Last reported at 2017-Sep-26 21:30 UTC. Time now 2017-Sep-26 21:48 UTC.
Position N 33°39' W 118°12'.

Length 183 m; draft 8.4 m.

Type: Tanker. MMSI: 366962000.

Date/timePositionNaut miles runAvg speedWind from/ knotsBaromVisibWave heightAir tempDewpointWater temp
2017-Sep-26 21:30N 33°39' W 118°12'4 8.6
2017-Sep-26 21:00N 33°36' W 118°16'510.7
2017-Sep-26 20:30N 33°37' W 118°23'611.6
2017-Sep-26 20:00N 33°40' W 118°29'612.0
2017-Sep-26 19:30N 33°43' W 118°35'611.4
2017-Sep-26 19:00N 33°44' W 118°41'612.1
2017-Sep-26 18:30N 33°44' W 118°49'612.1
2017-Sep-26 18:00N 33°44' W 118°56'612.0
2017-Sep-26 17:30N 33°44' W 119°03'5 9.0
2017-Sep-26 17:00N 33°45' W 119°09'5 9.1
2017-Sep-26 16:31N 33°45' W 119°14'714.6
2017-Sep-26 16:00N 33°44' W 119°23'714.9
2017-Sep-26 15:30N 33°43' W 119°32'815.0
2017-Sep-26 15:00N 33°43' W 119°41'714.7
2017-Sep-26 14:29N 33°43' W 119°50'714.6
2017-Sep-26 14:00N 33°41' W 119°58'714.9
2017-Sep-26 13:30N 33°38' W 120°06'714.7
2017-Sep-26 13:00N 33°37' W 120°15'714.8
2017-Sep-26 12:30N 33°40' W 120°23'714.3
2017-Sep-26 12:00N 33°43' W 120°30'714.4
2017-Sep-26 11:30N 33°48' W 120°37'714.5
2017-Sep-26 11:00N 33°52' W 120°44'610.7
2017-Sep-26 10:30N 33°53' W 120°51'713.7
2017-Sep-26 10:00N 33°50' W 120°44'714.4
2017-Sep-26 09:30N 33°46' W 120°36'3 6.4
2017-Sep-26 09:00N 33°44' W 120°34'714.2
2017-Sep-26 08:30N 33°47' W 120°42'714.2
2017-Sep-26 08:00N 33°50' W 120°50'714.6
2017-Sep-26 07:30N 33°53' W 120°58'714.8
2017-Sep-26 07:00N 33°56' W 121°05'714.9
2017-Sep-26 06:30N 33°59' W 121°14'714.6
2017-Sep-26 06:00N 34°02' W 121°22'714.0
2017-Sep-26 05:30N 34°05' W 121°29'714.4
2017-Sep-26 05:01N 34°11' W 121°34'814.5
2017-Sep-26 04:29N 34°18' W 121°39'714.8
2017-Sep-26 04:00N 34°24' W 121°43'714.8
2017-Sep-26 03:30N 34°30' W 121°48'714.7
2017-Sep-26 03:01N 34°36' W 121°53'714.5
2017-Sep-26 02:30N 34°43' W 121°57'714.8
2017-Sep-26 02:01N 34°49' W 122°02'714.7
2017-Sep-26 01:31N 34°55' W 122°06'714.8
2017-Sep-26 01:00N 35°02' W 122°11'714.7
2017-Sep-26 00:31N 35°08' W 122°16'714.9
2017-Sep-26 00:00N 35°14' W 122°21'714.8
2017-Sep-25 23:31N 35°20' W 122°25'714.7
2017-Sep-25 23:01N 35°27' W 122°30'714.5
2017-Sep-25 22:31N 35°33' W 122°35'714.1
2017-Sep-25 22:00N 35°39' W 122°39'714.5
2017-Sep-25 21:30N 35°45' W 122°44'714.5
2017-Sep-25 21:00N 35°51' W 122°49'714.6
2017-Sep-25 20:31N 35°58' W 122°53'714.8
2017-Sep-25 20:01N 36°04' W 122°58'714.9
2017-Sep-25 19:30N 36°10' W 123°02'714.8
2017-Sep-25 19:00N 36°17' W 123°07'714.6
2017-Sep-25 18:30N 36°23' W 123°12'714.5
2017-Sep-25 18:00N 36°30' W 123°11'714.3
2017-Sep-25 17:30N 36°37' W 123°10'714.6
2017-Sep-25 17:00N 36°45' W 123°10'714.4
2017-Sep-25 16:30N 36°52' W 123°09'714.4
2017-Sep-25 16:00N 36°59' W 123°08'714.9
2017-Sep-25 15:30N 37°06' W 123°07'714.6
2017-Sep-25 15:00N 37°14' W 123°06'714.4
2017-Sep-25 14:31N 37°21' W 123°06'714.4
2017-Sep-25 14:00N 37°28' W 123°05'611.4
2017-Sep-25 13:30N 37°34' W 123°04'5 9.7
2017-Sep-25 13:00N 37°37' W 122°59'510.2
2017-Sep-25 12:30N 37°39' W 122°54'5 9.9
2017-Sep-25 12:00N 37°42' W 122°49'612.2
2017-Sep-25 11:30N 37°45' W 122°42'613.0
2017-Sep-25 11:00N 37°47' W 122°34'511.0
2017-Sep-25 10:30N 37°49' W 122°28'4 7.3
2017-Sep-25 10:00N 37°52' W 122°25'3 6.6
2017-Sep-25 09:30N 37°55' W 122°25'1 1.1
2017-Sep-25 09:00N 37°55' W 122°25'0 0.0
2017-Sep-25 08:30N 37°55' W 122°25'0 0.0
2017-Sep-25 08:00N 37°55' W 122°25'0 0.0
2017-Sep-25 07:30N 37°55' W 122°25'0 0.0
2017-Sep-25 07:00N 37°55' W 122°25'0 0.0
2017-Sep-25 06:21N 37°55' W 122°25'0 0.0
2017-Sep-25 06:00N 37°55' W 122°25'0 0.0
2017-Sep-25 05:30N 37°55' W 122°25'0 0.0
2017-Sep-25 05:00N 37°55' W 122°25'0 0.0
2017-Sep-25 04:30N 37°55' W 122°25'0 0.0
2017-Sep-25 04:00N 37°55' W 122°25'0 0.0
2017-Sep-25 03:30N 37°55' W 122°25'0 0.0
2017-Sep-25 03:00N 37°55' W 122°25'0 0.0
2017-Sep-25 02:30N 37°55' W 122°25'0 0.0
2017-Sep-25 02:00N 37°55' W 122°25'0 0.0
2017-Sep-25 01:30N 37°55' W 122°25'0 0.0
2017-Sep-25 01:00N 37°55' W 122°25'0 0.0
2017-Sep-25 00:30N 37°55' W 122°25'0 0.0
2017-Sep-25 00:00N 37°55' W 122°25'0 0.0
2017-Sep-24 23:27N 37°55' W 122°25'0 0.0
2017-Sep-24 23:00N 37°55' W 122°25'0 0.0
2017-Sep-24 22:30N 37°55' W 122°25'0 0.0
2017-Sep-24 22:00N 37°55' W 122°25'0 0.0
2017-Sep-24 21:27N 37°55' W 122°25'0 0.0
2017-Sep-24 21:00N 37°55' W 122°25'0 0.0
2017-Sep-24 20:30N 37°55' W 122°25'0 0.0
2017-Sep-24 20:00N 37°55' W 122°25'0 0.0
2017-Sep-24 19:30N 37°55' W 122°25'0 0.0
2017-Sep-24 19:00N 37°55' W 122°25'0 0.0
2017-Sep-24 18:30N 37°55' W 122°25'0 0.0
2017-Sep-24 17:57N 37°55' W 122°25'0 0.0
2017-Sep-24 17:24N 37°55' W 122°25'0 0.0
2017-Sep-24 17:00N 37°55' W 122°25'0 0.0
2017-Sep-24 16:24N 37°55' W 122°25'0 0.0
2017-Sep-24 15:57N 37°55' W 122°25'0 0.0
2017-Sep-24 15:30N 37°55' W 122°25'0 0.0
2017-Sep-24 14:57N 37°55' W 122°25'0 0.0
2017-Sep-24 14:27N 37°55' W 122°25'0 0.0
2017-Sep-24 13:57N 37°55' W 122°25'0 0.0
2017-Sep-24 13:27N 37°55' W 122°25'0 0.0
2017-Sep-24 12:48N 37°55' W 122°25'0 0.0
2017-Sep-24 12:27N 37°55' W 122°25'0 0.0
2017-Sep-24 11:54N 37°55' W 122°25'0 0.0
2017-Sep-24 11:27N 37°55' W 122°25'0 0.0
2017-Sep-24 10:57N 37°55' W 122°25'0 0.0
2017-Sep-24 10:30N 37°55' W 122°25'0 0.0
2017-Sep-24 10:00N 37°55' W 122°25'0 0.1
2017-Sep-24 09:30N 37°55' W 122°25'0 0.1
2017-Sep-24 09:00N 37°55' W 122°25'0 0.0
2017-Sep-24 08:27N 37°55' W 122°25'0 0.0
2017-Sep-24 07:51N 37°55' W 122°25'0 0.0
2017-Sep-24 07:27N 37°55' W 122°25'0 0.0
2017-Sep-24 06:45N 37°55' W 122°25'0 0.0
2017-Sep-24 06:24N 37°55' W 122°25'0 0.0
2017-Sep-24 06:00N 37°55' W 122°25'0 0.0
2017-Sep-24 05:30N 37°55' W 122°25'0 0.0
2017-Sep-24 05:00N 37°55' W 122°25'0 0.0
2017-Sep-24 04:27N 37°55' W 122°25'0 0.0
2017-Sep-24 03:54N 37°55' W 122°25'0 0.0
2017-Sep-24 03:30N 37°55' W 122°25'0 0.0
2017-Sep-24 03:00N 37°55' W 122°25'0 0.0
2017-Sep-24 02:30N 37°55' W 122°25'0 0.0
2017-Sep-24 02:00N 37°55' W 122°25'0 0.0
2017-Sep-24 01:30N 37°55' W 122°25'0 0.0
2017-Sep-24 01:00N 37°55' W 122°25'0 0.0
2017-Sep-24 00:30N 37°55' W 122°25'0 0.0
2017-Sep-24 00:00N 37°55' W 122°25'0 0.0
2017-Sep-23 23:24N 37°55' W 122°25'0 0.0
2017-Sep-23 22:57N 37°55' W 122°25'0 0.0
2017-Sep-23 22:30N 37°55' W 122°25'0 0.0
2017-Sep-23 22:00N 37°55' W 122°25'0 0.0
2017-Sep-23 21:24N 37°55' W 122°25'0 0.0
2017-Sep-23 21:00N 37°55' W 122°25'0 0.0
2017-Sep-23 20:30N 37°55' W 122°25'0 0.0
2017-Sep-23 20:00N 37°55' W 122°25'188 3.8
2017-Sep-21 18:22N 34°49' W 122°01'513.5
2017-Sep-21 18:00N 34°44' W 121°58'713.6
2017-Sep-21 17:30N 34°39' W 121°54'713.5
2017-Sep-21 17:00N 34°33' W 121°50'713.8
2017-Sep-21 16:30N 34°27' W 121°45'713.8
2017-Sep-21 16:00N 34°21' W 121°41'713.6
2017-Sep-21 15:30N 34°15' W 121°37'713.3
2017-Sep-21 14:59N 34°09' W 121°32'613.3
2017-Sep-21 14:30N 34°04' W 121°28'713.1
2017-Sep-21 14:00N 34°01' W 121°21'713.2
2017-Sep-21 13:30N 33°58' W 121°14'713.1
2017-Sep-21 13:00N 33°56' W 121°06'713.3
2017-Sep-21 12:29N 33°53' W 120°59'613.5
2017-Sep-21 12:00N 33°50' W 120°52'713.8
2017-Sep-21 11:30N 33°48' W 120°44'713.6
2017-Sep-21 11:00N 33°45' W 120°37'713.7
2017-Sep-21 10:30N 33°42' W 120°29'713.5
2017-Sep-21 10:00N 33°39' W 120°22'713.2
2017-Sep-21 09:28N 33°37' W 120°13'714.0
2017-Sep-21 08:59N 33°38' W 120°06'713.9
2017-Sep-21 08:30N 33°39' W 119°58'713.6
2017-Sep-21 08:00N 33°39' W 119°49'714.9
2017-Sep-21 07:30N 33°41' W 119°41'714.4
2017-Sep-21 07:00N 33°41' W 119°32'714.4
2017-Sep-21 06:30N 33°42' W 119°23'814.6
2017-Sep-21 05:58N 33°43' W 119°14'714.5
2017-Sep-21 05:30N 33°44' W 119°06'612.2
2017-Sep-21 05:00N 33°44' W 118°59'612.3
2017-Sep-21 04:30N 33°44' W 118°51'612.2
2017-Sep-21 04:00N 33°44' W 118°44'612.2
2017-Sep-21 03:30N 33°44' W 118°37'611.8
2017-Sep-21 03:00N 33°43' W 118°30'4 9.0
2017-Sep-21 02:30N 33°41' W 118°25'5 9.0
2017-Sep-21 01:58N 33°39' W 118°20'4 9.6
2017-Sep-21 01:30N 33°41' W 118°15'3 6.7
2017-Sep-21 01:00N 33°44' W 118°16'2 4.2
2017-Sep-21 00:30N 33°46' W 118°16'0 0.2
2017-Sep-21 00:00N 33°46' W 118°16'0 0.0
2017-Sep-20 23:28N 33°46' W 118°16'0 0.0
2017-Sep-20 22:58N 33°46' W 118°16'0 0.0
2017-Sep-20 22:28N 33°46' W 118°16'0 0.0
2017-Sep-20 21:58N 33°46' W 118°16'0 0.0
2017-Sep-20 21:28N 33°46' W 118°16'0 0.0
2017-Sep-20 20:58N 33°46' W 118°16'0 0.0
2017-Sep-20 20:10N 33°46' W 118°16'0 0.0
2017-Sep-20 19:58N 33°46' W 118°16'0 0.0
2017-Sep-20 19:28N 33°46' W 118°16'0 0.0
2017-Sep-20 18:58N 33°46' W 118°16'0 0.0
2017-Sep-20 18:28N 33°46' W 118°16'0 0.0
2017-Sep-20 17:58N 33°46' W 118°16'0 0.0
2017-Sep-20 17:28N 33°46' W 118°16'0 0.0
2017-Sep-20 16:52N 33°46' W 118°16'0 0.0
2017-Sep-20 16:28N 33°46' W 118°16'0 0.0
2017-Sep-20 15:58N 33°46' W 118°16'0 0.0
2017-Sep-20 15:22N 33°46' W 118°16'0 0.0
2017-Sep-20 14:58N 33°46' W 118°16'0 0.0
2017-Sep-20 13:58N 33°46' W 118°16'0 0.0
2017-Sep-20 13:16N 33°46' W 118°16'0 0.0
2017-Sep-20 12:52N 33°46' W 118°16'0 0.0
2017-Sep-20 12:10N 33°46' W 118°16'0 0.0
2017-Sep-20 11:58N 33°46' W 118°16'0 0.0
2017-Sep-20 11:28N 33°46' W 118°16'0 0.0
2017-Sep-20 10:52N 33°46' W 118°16'0 0.0
2017-Sep-20 10:28N 33°46' W 118°16'0 0.0
2017-Sep-20 09:46N 33°46' W 118°16'0 0.0
2017-Sep-20 09:22N 33°46' W 118°16'0 0.0
2017-Sep-20 08:40N 33°46' W 118°16'0 0.0
2017-Sep-20 08:28N 33°46' W 118°16'0 0.0
2017-Sep-20 07:58N 33°46' W 118°16'0 0.0
2017-Sep-20 07:28N 33°46' W 118°16'0 0.0
2017-Sep-20 06:52N 33°46' W 118°16'0 0.0
2017-Sep-20 06:28N 33°46' W 118°16'0 0.0
2017-Sep-20 05:52N 33°46' W 118°16'0 0.0
2017-Sep-20 05:25N 33°46' W 118°16'0 0.0
2017-Sep-20 04:55N 33°46' W 118°16'0 0.0
2017-Sep-20 04:25N 33°46' W 118°16'0 0.0
2017-Sep-20 03:55N 33°46' W 118°16'0 0.0
2017-Sep-20 03:25N 33°46' W 118°16'0 0.0
2017-Sep-20 02:46N 33°46' W 118°16'0 0.0
2017-Sep-20 02:28N 33°46' W 118°16'0 0.0
2017-Sep-20 01:58N 33°46' W 118°16'0 0.0
2017-Sep-20 01:25N 33°46' W 118°16'0 0.0
2017-Sep-20 00:55N 33°46' W 118°16'0 0.0
2017-Sep-20 00:25N 33°46' W 118°16'0 0.0
2017-Sep-19 23:49N 33°46' W 118°16'0 0.0
2017-Sep-19 23:25N 33°46' W 118°16'0 0.0
2017-Sep-19 22:55N 33°46' W 118°16'0 0.0
2017-Sep-19 22:25N 33°46' W 118°16'0 0.0
2017-Sep-19 21:55N 33°46' W 118°16'0 0.0
2017-Sep-19 21:25N 33°46' W 118°16'0 0.0
2017-Sep-19 20:55N 33°46' W 118°16'0 0.0
2017-Sep-19 20:07N 33°46' W 118°16'0 0.0
2017-Sep-19 19:31N 33°46' W 118°16'0 0.0
2017-Sep-19 19:19N 33°46' W 118°16'0 0.0
2017-Sep-19 18:55N 33°46' W 118°16'0 0.0
2017-Sep-19 18:19N 33°46' W 118°16'0 0.0
2017-Sep-19 17:55N 33°46' W 118°16'0 0.0
2017-Sep-19 17:25N 33°46' W 118°16'0 0.0
2017-Sep-19 16:55N 33°46' W 118°16'0 0.0
2017-Sep-19 15:19N 33°46' W 118°16'0 0.0
2017-Sep-19 14:55N 33°46' W 118°16'0 0.0
2017-Sep-19 13:49N 33°46' W 118°16'0 0.0
2017-Sep-19 13:25N 33°46' W 118°16'0 0.0
2017-Sep-19 12:55N 33°46' W 118°16'0 0.0
2017-Sep-19 11:16N 33°46' W 118°16'0 0.0
2017-Sep-19 10:58N 33°46' W 118°16'0 0.0
2017-Sep-19 10:22N 33°46' W 118°16'0 0.0
2017-Sep-19 08:55N 33°46' W 118°16'0 0.0
2017-Sep-19 08:28N 33°46' W 118°16'0 0.0
2017-Sep-19 07:40N 33°46' W 118°16'0 0.0
2017-Sep-19 07:28N 33°46' W 118°16'0 0.0
2017-Sep-19 06:52N 33°46' W 118°16'0 0.0
2017-Sep-19 06:25N 33°46' W 118°16'0 0.0
2017-Sep-19 05:58N 33°46' W 118°16'0 0.0
2017-Sep-19 05:16N 33°46' W 118°16'0 0.0
2017-Sep-19 04:46N 33°46' W 118°16'0 0.0
2017-Sep-19 04:16N 33°46' W 118°16'0 0.0
2017-Sep-19 03:58N 33°46' W 118°16'0 0.0
2017-Sep-19 03:22N 33°46' W 118°16'0 0.0
2017-Sep-19 02:31N 33°46' W 118°16'0 0.0
2017-Sep-19 02:25N 33°46' W 118°16'0 0.0
2017-Sep-19 01:55N 33°46' W 118°16'0 0.0
2017-Sep-19 01:25N 33°46' W 118°16'0 0.0
2017-Sep-19 00:55N 33°46' W 118°16'0 0.0
2017-Sep-19 00:07N 33°46' W 118°16'0 0.0
2017-Sep-18 23:55N 33°46' W 118°16'0 0.0
2017-Sep-18 23:25N 33°46' W 118°16'0 0.0
2017-Sep-18 22:49N 33°46' W 118°16'0 0.0
2017-Sep-18 22:25N 33°46' W 118°16'0 0.0
2017-Sep-18 21:49N 33°46' W 118°16'0 0.0
2017-Sep-18 21:25N 33°46' W 118°16'0 0.0
2017-Sep-18 20:49N 33°46' W 118°16'0 0.0
2017-Sep-18 20:25N 33°46' W 118°16'0 0.0
2017-Sep-18 19:55N 33°46' W 118°16'0 0.0
2017-Sep-18 19:25N 33°46' W 118°16'0 0.0
2017-Sep-18 18:49N 33°46' W 118°16'0 0.0
2017-Sep-18 18:29N 33°46' W 118°16'0 0.3
2017-Sep-18 18:00N 33°46' W 118°16'1 2.7
2017-Sep-18 17:30N 33°45' W 118°17'3 5.5
2017-Sep-18 17:00N 33°42' W 118°15'4 7.5
2017-Sep-18 16:30N 33°39' W 118°13'510.3
2017-Sep-18 16:00N 33°36' W 118°19'611.8
2017-Sep-18 15:30N 33°38' W 118°25'611.9
2017-Sep-18 15:00N 33°42' W 118°31'712.3
2017-Sep-18 14:28N 33°48' W 118°31'712.0
2017-Sep-18 13:55N 33°55' W 118°30'2 5.8
2017-Sep-18 13:29N 33°55' W 118°27'0 0.2
2017-Sep-18 13:00N 33°55' W 118°27'0 0.2
2017-Sep-18 12:30N 33°55' W 118°27'0 0.0
2017-Sep-18 12:00N 33°55' W 118°27'0 0.0
2017-Sep-18 11:28N 33°55' W 118°27'0 0.0
2017-Sep-18 10:58N 33°55' W 118°27'0 0.0
2017-Sep-18 10:28N 33°55' W 118°27'0 0.0
2017-Sep-18 09:58N 33°55' W 118°27'0 0.0
2017-Sep-18 09:28N 33°55' W 118°27'0 0.0
2017-Sep-18 08:52N 33°55' W 118°27'0 0.0
2017-Sep-18 08:25N 33°55' W 118°27'0 0.0
2017-Sep-18 07:58N 33°55' W 118°27'0 0.0
2017-Sep-18 07:28N 33°55' W 118°27'0 0.0
2017-Sep-18 06:13N 33°55' W 118°27'0 0.0
2017-Sep-18 05:58N 33°55' W 118°27'0 0.0
2017-Sep-18 03:31N 33°55' W 118°27'0 0.0
2017-Sep-18 03:28N 33°55' W 118°27'0 0.0
2017-Sep-18 02:52N 33°55' W 118°27'0 0.0
2017-Sep-18 02:10N 33°55' W 118°27'0 0.0
2017-Sep-18 01:43N 33°55' W 118°27'0 0.0
2017-Sep-18 01:25N 33°55' W 118°27'0 0.0
2017-Sep-18 00:19N 33°55' W 118°27'0 0.0
2017-Sep-17 23:43N 33°55' W 118°27'0 0.0
2017-Sep-17 23:25N 33°55' W 118°27'0 0.0
2017-Sep-17 22:55N 33°55' W 118°27'0 0.0
2017-Sep-17 22:01N 33°55' W 118°27'0 0.0
2017-Sep-17 21:49N 33°55' W 118°27'0 0.0
2017-Sep-17 21:25N 33°55' W 118°27'0 0.0
2017-Sep-17 20:52N 33°55' W 118°27'0 0.0
2017-Sep-17 17:25N 33°55' W 118°27'0 0.0
2017-Sep-17 16:49N 33°55' W 118°27'0 0.0
2017-Sep-17 12:13N 33°55' W 118°27'0 0.0
2017-Sep-17 11:55N 33°55' W 118°27'0 0.0
2017-Sep-17 09:13N 33°55' W 118°27'0 0.0
2017-Sep-17 08:49N 33°55' W 118°27'0 0.0
2017-Sep-17 07:37N 33°55' W 118°27'0 0.0
2017-Sep-17 07:25N 33°55' W 118°27'0 0.0
2017-Sep-17 06:55N 33°55' W 118°27'0 0.0
2017-Sep-17 06:22N 33°55' W 118°27'0 0.0
2017-Sep-17 05:43N 33°55' W 118°27'0 0.0
2017-Sep-17 04:25N 33°55' W 118°27'0 0.0
2017-Sep-17 03:37N 33°55' W 118°27'0 0.0
2017-Sep-17 03:25N 33°55' W 118°27'0 0.0
2017-Sep-17 01:25N 33°55' W 118°27'0 0.0
2017-Sep-17 00:55N 33°55' W 118°27'0 0.0
2017-Sep-16 23:49N 33°55' W 118°27'0 0.0
2017-Sep-16 22:58N 33°55' W 118°27'1 1.2
2017-Sep-16 22:30N 33°54' W 118°27'2 4.0
2017-Sep-16 22:00N 33°53' W 118°29'  
Track history (hours):
 
Tides and Currents Weather Stations Pressure Air Temp Water Temp Dewpoint Dewpoint Depression Visibility Wind Speed Wind Dir Waves Ship Positions

Mississippi Voyager

Owner: Chevron USA Inc., Washington, DC. More information available from US FCC via Universal Licensing System and Coast Guard Vessel Documentation Center.

Last reported at 2017-Sep-26 21:30 UTC. Time now 2017-Sep-26 21:48 UTC.
Position N 33°39' W 118°12'.

Length 183 m; draft 8.4 m.

Type: Tanker. MMSI: 366962000.

Date/timePositionNaut miles runAvg speedWind from/ knotsBaromVisibWave heightAir tempDewpointWater temp
2017-Sep-26 21:30N 33°39' W 118°12'4 8.6
2017-Sep-26 21:00N 33°36' W 118°16'510.7
2017-Sep-26 20:30N 33°37' W 118°23'611.6
2017-Sep-26 20:00N 33°40' W 118°29'612.0
2017-Sep-26 19:30N 33°43' W 118°35'611.4
2017-Sep-26 19:00N 33°44' W 118°41'612.1
2017-Sep-26 18:30N 33°44' W 118°49'612.1
2017-Sep-26 18:00N 33°44' W 118°56'612.0
2017-Sep-26 17:30N 33°44' W 119°03'5 9.0
2017-Sep-26 17:00N 33°45' W 119°09'5 9.1
2017-Sep-26 16:31N 33°45' W 119°14'714.6
2017-Sep-26 16:00N 33°44' W 119°23'714.9
2017-Sep-26 15:30N 33°43' W 119°32'815.0
2017-Sep-26 15:00N 33°43' W 119°41'714.7
2017-Sep-26 14:29N 33°43' W 119°50'714.6
2017-Sep-26 14:00N 33°41' W 119°58'714.9
2017-Sep-26 13:30N 33°38' W 120°06'714.7
2017-Sep-26 13:00N 33°37' W 120°15'714.8
2017-Sep-26 12:30N 33°40' W 120°23'714.3
2017-Sep-26 12:00N 33°43' W 120°30'714.4
2017-Sep-26 11:30N 33°48' W 120°37'714.5
2017-Sep-26 11:00N 33°52' W 120°44'610.7
2017-Sep-26 10:30N 33°53' W 120°51'713.7
2017-Sep-26 10:00N 33°50' W 120°44'714.4
2017-Sep-26 09:30N 33°46' W 120°36'3 6.4
2017-Sep-26 09:00N 33°44' W 120°34'714.2
2017-Sep-26 08:30N 33°47' W 120°42'714.2
2017-Sep-26 08:00N 33°50' W 120°50'714.6
2017-Sep-26 07:30N 33°53' W 120°58'714.8
2017-Sep-26 07:00N 33°56' W 121°05'714.9
2017-Sep-26 06:30N 33°59' W 121°14'714.6
2017-Sep-26 06:00N 34°02' W 121°22'714.0
2017-Sep-26 05:30N 34°05' W 121°29'714.4
2017-Sep-26 05:01N 34°11' W 121°34'814.5
2017-Sep-26 04:29N 34°18' W 121°39'714.8
2017-Sep-26 04:00N 34°24' W 121°43'714.8
2017-Sep-26 03:30N 34°30' W 121°48'714.7
2017-Sep-26 03:01N 34°36' W 121°53'714.5
2017-Sep-26 02:30N 34°43' W 121°57'714.8
2017-Sep-26 02:01N 34°49' W 122°02'714.7
2017-Sep-26 01:31N 34°55' W 122°06'714.8
2017-Sep-26 01:00N 35°02' W 122°11'714.7
2017-Sep-26 00:31N 35°08' W 122°16'714.9
2017-Sep-26 00:00N 35°14' W 122°21'714.8
2017-Sep-25 23:31N 35°20' W 122°25'714.7
2017-Sep-25 23:01N 35°27' W 122°30'714.5
2017-Sep-25 22:31N 35°33' W 122°35'714.1
2017-Sep-25 22:00N 35°39' W 122°39'714.5
2017-Sep-25 21:30N 35°45' W 122°44'714.5
2017-Sep-25 21:00N 35°51' W 122°49'714.6
2017-Sep-25 20:31N 35°58' W 122°53'714.8
2017-Sep-25 20:01N 36°04' W 122°58'714.9
2017-Sep-25 19:30N 36°10' W 123°02'714.8
2017-Sep-25 19:00N 36°17' W 123°07'714.6
2017-Sep-25 18:30N 36°23' W 123°12'714.5
2017-Sep-25 18:00N 36°30' W 123°11'714.3
2017-Sep-25 17:30N 36°37' W 123°10'714.6
2017-Sep-25 17:00N 36°45' W 123°10'714.4
2017-Sep-25 16:30N 36°52' W 123°09'714.4
2017-Sep-25 16:00N 36°59' W 123°08'714.9
2017-Sep-25 15:30N 37°06' W 123°07'714.6
2017-Sep-25 15:00N 37°14' W 123°06'714.4
2017-Sep-25 14:31N 37°21' W 123°06'714.4
2017-Sep-25 14:00N 37°28' W 123°05'611.4
2017-Sep-25 13:30N 37°34' W 123°04'5 9.7
2017-Sep-25 13:00N 37°37' W 122°59'510.2
2017-Sep-25 12:30N 37°39' W 122°54'5 9.9
2017-Sep-25 12:00N 37°42' W 122°49'612.2
2017-Sep-25 11:30N 37°45' W 122°42'613.0
2017-Sep-25 11:00N 37°47' W 122°34'511.0
2017-Sep-25 10:30N 37°49' W 122°28'4 7.3
2017-Sep-25 10:00N 37°52' W 122°25'3 6.6
2017-Sep-25 09:30N 37°55' W 122°25'1 1.1
2017-Sep-25 09:00N 37°55' W 122°25'0 0.0
2017-Sep-25 08:30N 37°55' W 122°25'0 0.0
2017-Sep-25 08:00N 37°55' W 122°25'0 0.0
2017-Sep-25 07:30N 37°55' W 122°25'0 0.0
2017-Sep-25 07:00N 37°55' W 122°25'0 0.0
2017-Sep-25 06:21N 37°55' W 122°25'0 0.0
2017-Sep-25 06:00N 37°55' W 122°25'0 0.0
2017-Sep-25 05:30N 37°55' W 122°25'0 0.0
2017-Sep-25 05:00N 37°55' W 122°25'0 0.0
2017-Sep-25 04:30N 37°55' W 122°25'0 0.0
2017-Sep-25 04:00N 37°55' W 122°25'0 0.0
2017-Sep-25 03:30N 37°55' W 122°25'0 0.0
2017-Sep-25 03:00N 37°55' W 122°25'0 0.0
2017-Sep-25 02:30N 37°55' W 122°25'0 0.0
2017-Sep-25 02:00N 37°55' W 122°25'0 0.0
2017-Sep-25 01:30N 37°55' W 122°25'0 0.0
2017-Sep-25 01:00N 37°55' W 122°25'0 0.0
2017-Sep-25 00:30N 37°55' W 122°25'0 0.0
2017-Sep-25 00:00N 37°55' W 122°25'0 0.0
2017-Sep-24 23:27N 37°55' W 122°25'0 0.0
2017-Sep-24 23:00N 37°55' W 122°25'0 0.0
2017-Sep-24 22:30N 37°55' W 122°25'0 0.0
2017-Sep-24 22:00N 37°55' W 122°25'0 0.0
2017-Sep-24 21:27N 37°55' W 122°25'0 0.0
2017-Sep-24 21:00N 37°55' W 122°25'0 0.0
2017-Sep-24 20:30N 37°55' W 122°25'0 0.0
2017-Sep-24 20:00N 37°55' W 122°25'0 0.0
2017-Sep-24 19:30N 37°55' W 122°25'0 0.0
2017-Sep-24 19:00N 37°55' W 122°25'0 0.0
2017-Sep-24 18:30N 37°55' W 122°25'0 0.0
2017-Sep-24 17:57N 37°55' W 122°25'0 0.0
2017-Sep-24 17:24N 37°55' W 122°25'0 0.0
2017-Sep-24 17:00N 37°55' W 122°25'0 0.0
2017-Sep-24 16:24N 37°55' W 122°25'0 0.0
2017-Sep-24 15:57N 37°55' W 122°25'0 0.0
2017-Sep-24 15:30N 37°55' W 122°25'0 0.0
2017-Sep-24 14:57N 37°55' W 122°25'0 0.0
2017-Sep-24 14:27N 37°55' W 122°25'0 0.0
2017-Sep-24 13:57N 37°55' W 122°25'0 0.0
2017-Sep-24 13:27N 37°55' W 122°25'0 0.0
2017-Sep-24 12:48N 37°55' W 122°25'0 0.0
2017-Sep-24 12:27N 37°55' W 122°25'0 0.0
2017-Sep-24 11:54N 37°55' W 122°25'0 0.0
2017-Sep-24 11:27N 37°55' W 122°25'0 0.0
2017-Sep-24 10:57N 37°55' W 122°25'0 0.0
2017-Sep-24 10:30N 37°55' W 122°25'0 0.0
2017-Sep-24 10:00N 37°55' W 122°25'0 0.1
2017-Sep-24 09:30N 37°55' W 122°25'0 0.1
2017-Sep-24 09:00N 37°55' W 122°25'0 0.0
2017-Sep-24 08:27N 37°55' W 122°25'0 0.0
2017-Sep-24 07:51N 37°55' W 122°25'0 0.0
2017-Sep-24 07:27N 37°55' W 122°25'0 0.0
2017-Sep-24 06:45N 37°55' W 122°25'0 0.0
2017-Sep-24 06:24N 37°55' W 122°25'0 0.0
2017-Sep-24 06:00N 37°55' W 122°25'0 0.0
2017-Sep-24 05:30N 37°55' W 122°25'0 0.0
2017-Sep-24 05:00N 37°55' W 122°25'0 0.0
2017-Sep-24 04:27N 37°55' W 122°25'0 0.0
2017-Sep-24 03:54N 37°55' W 122°25'0 0.0
2017-Sep-24 03:30N 37°55' W 122°25'0 0.0
2017-Sep-24 03:00N 37°55' W 122°25'0 0.0
2017-Sep-24 02:30N 37°55' W 122°25'0 0.0
2017-Sep-24 02:00N 37°55' W 122°25'0 0.0
2017-Sep-24 01:30N 37°55' W 122°25'0 0.0
2017-Sep-24 01:00N 37°55' W 122°25'0 0.0
2017-Sep-24 00:30N 37°55' W 122°25'0 0.0
2017-Sep-24 00:00N 37°55' W 122°25'0 0.0
2017-Sep-23 23:24N 37°55' W 122°25'0 0.0
2017-Sep-23 22:57N 37°55' W 122°25'0 0.0
2017-Sep-23 22:30N 37°55' W 122°25'0 0.0
2017-Sep-23 22:00N 37°55' W 122°25'0 0.0
2017-Sep-23 21:24N 37°55' W 122°25'0 0.0
2017-Sep-23 21:00N 37°55' W 122°25'0 0.0
2017-Sep-23 20:30N 37°55' W 122°25'0 0.0
2017-Sep-23 20:00N 37°55' W 122°25'188 3.8
2017-Sep-21 18:22N 34°49' W 122°01'513.5
2017-Sep-21 18:00N 34°44' W 121°58'713.6
2017-Sep-21 17:30N 34°39' W 121°54'713.5
2017-Sep-21 17:00N 34°33' W 121°50'713.8
2017-Sep-21 16:30N 34°27' W 121°45'713.8
2017-Sep-21 16:00N 34°21' W 121°41'713.6
2017-Sep-21 15:30N 34°15' W 121°37'713.3
2017-Sep-21 14:59N 34°09' W 121°32'613.3
2017-Sep-21 14:30N 34°04' W 121°28'713.1
2017-Sep-21 14:00N 34°01' W 121°21'713.2
2017-Sep-21 13:30N 33°58' W 121°14'713.1
2017-Sep-21 13:00N 33°56' W 121°06'713.3
2017-Sep-21 12:29N 33°53' W 120°59'613.5
2017-Sep-21 12:00N 33°50' W 120°52'713.8
2017-Sep-21 11:30N 33°48' W 120°44'713.6
2017-Sep-21 11:00N 33°45' W 120°37'713.7
2017-Sep-21 10:30N 33°42' W 120°29'713.5
2017-Sep-21 10:00N 33°39' W 120°22'713.2
2017-Sep-21 09:28N 33°37' W 120°13'714.0
2017-Sep-21 08:59N 33°38' W 120°06'713.9
2017-Sep-21 08:30N 33°39' W 119°58'713.6
2017-Sep-21 08:00N 33°39' W 119°49'714.9
2017-Sep-21 07:30N 33°41' W 119°41'714.4
2017-Sep-21 07:00N 33°41' W 119°32'714.4
2017-Sep-21 06:30N 33°42' W 119°23'814.6
2017-Sep-21 05:58N 33°43' W 119°14'714.5
2017-Sep-21 05:30N 33°44' W 119°06'612.2
2017-Sep-21 05:00N 33°44' W 118°59'612.3
2017-Sep-21 04:30N 33°44' W 118°51'612.2
2017-Sep-21 04:00N 33°44' W 118°44'612.2
2017-Sep-21 03:30N 33°44' W 118°37'611.8
2017-Sep-21 03:00N 33°43' W 118°30'4 9.0
2017-Sep-21 02:30N 33°41' W 118°25'5 9.0
2017-Sep-21 01:58N 33°39' W 118°20'4 9.6
2017-Sep-21 01:30N 33°41' W 118°15'3 6.7
2017-Sep-21 01:00N 33°44' W 118°16'2 4.2
2017-Sep-21 00:30N 33°46' W 118°16'0 0.2
2017-Sep-21 00:00N 33°46' W 118°16'0 0.0
2017-Sep-20 23:28N 33°46' W 118°16'0 0.0
2017-Sep-20 22:58N 33°46' W 118°16'0 0.0
2017-Sep-20 22:28N 33°46' W 118°16'0 0.0
2017-Sep-20 21:58N 33°46' W 118°16'0 0.0
2017-Sep-20 21:28N 33°46' W 118°16'0 0.0
2017-Sep-20 20:58N 33°46' W 118°16'0 0.0
2017-Sep-20 20:10N 33°46' W 118°16'0 0.0
2017-Sep-20 19:58N 33°46' W 118°16'0 0.0
2017-Sep-20 19:28N 33°46' W 118°16'0 0.0
2017-Sep-20 18:58N 33°46' W 118°16'0 0.0
2017-Sep-20 18:28N 33°46' W 118°16'0 0.0
2017-Sep-20 17:58N 33°46' W 118°16'0 0.0
2017-Sep-20 17:28N 33°46' W 118°16'0 0.0
2017-Sep-20 16:52N 33°46' W 118°16'0 0.0
2017-Sep-20 16:28N 33°46' W 118°16'0 0.0
2017-Sep-20 15:58N 33°46' W 118°16'0 0.0
2017-Sep-20 15:22N 33°46' W 118°16'0 0.0
2017-Sep-20 14:58N 33°46' W 118°16'0 0.0
2017-Sep-20 13:58N 33°46' W 118°16'0 0.0
2017-Sep-20 13:16N 33°46' W 118°16'0 0.0
2017-Sep-20 12:52N 33°46' W 118°16'0 0.0
2017-Sep-20 12:10N 33°46' W 118°16'0 0.0
2017-Sep-20 11:58N 33°46' W 118°16'0 0.0
2017-Sep-20 11:28N 33°46' W 118°16'0 0.0
2017-Sep-20 10:52N 33°46' W 118°16'0 0.0
2017-Sep-20 10:28N 33°46' W 118°16'0 0.0
2017-Sep-20 09:46N 33°46' W 118°16'0 0.0
2017-Sep-20 09:22N 33°46' W 118°16'0 0.0
2017-Sep-20 08:40N 33°46' W 118°16'0 0.0
2017-Sep-20 08:28N 33°46' W 118°16'0 0.0
2017-Sep-20 07:58N 33°46' W 118°16'0 0.0
2017-Sep-20 07:28N 33°46' W 118°16'0 0.0
2017-Sep-20 06:52N 33°46' W 118°16'0 0.0
2017-Sep-20 06:28N 33°46' W 118°16'0 0.0
2017-Sep-20 05:52N 33°46' W 118°16'0 0.0
2017-Sep-20 05:25N 33°46' W 118°16'0 0.0
2017-Sep-20 04:55N 33°46' W 118°16'0 0.0
2017-Sep-20 04:25N 33°46' W 118°16'0 0.0
2017-Sep-20 03:55N 33°46' W 118°16'0 0.0
2017-Sep-20 03:25N 33°46' W 118°16'0 0.0
2017-Sep-20 02:46N 33°46' W 118°16'0 0.0
2017-Sep-20 02:28N 33°46' W 118°16'0 0.0
2017-Sep-20 01:58N 33°46' W 118°16'0 0.0
2017-Sep-20 01:25N 33°46' W 118°16'0 0.0
2017-Sep-20 00:55N 33°46' W 118°16'0 0.0
2017-Sep-20 00:25N 33°46' W 118°16'0 0.0
2017-Sep-19 23:49N 33°46' W 118°16'0 0.0
2017-Sep-19 23:25N 33°46' W 118°16'0 0.0
2017-Sep-19 22:55N 33°46' W 118°16'0 0.0
2017-Sep-19 22:25N 33°46' W 118°16'0 0.0
2017-Sep-19 21:55N 33°46' W 118°16'0 0.0
2017-Sep-19 21:25N 33°46' W 118°16'0 0.0
2017-Sep-19 20:55N 33°46' W 118°16'0 0.0
2017-Sep-19 20:07N 33°46' W 118°16'0 0.0
2017-Sep-19 19:31N 33°46' W 118°16'0 0.0
2017-Sep-19 19:19N 33°46' W 118°16'0 0.0
2017-Sep-19 18:55N 33°46' W 118°16'0 0.0
2017-Sep-19 18:19N 33°46' W 118°16'0 0.0
2017-Sep-19 17:55N 33°46' W 118°16'0 0.0
2017-Sep-19 17:25N 33°46' W 118°16'0 0.0
2017-Sep-19 16:55N 33°46' W 118°16'0 0.0
2017-Sep-19 15:19N 33°46' W 118°16'0 0.0
2017-Sep-19 14:55N 33°46' W 118°16'0 0.0
2017-Sep-19 13:49N 33°46' W 118°16'0 0.0
2017-Sep-19 13:25N 33°46' W 118°16'0 0.0
2017-Sep-19 12:55N 33°46' W 118°16'0 0.0
2017-Sep-19 11:16N 33°46' W 118°16'0 0.0
2017-Sep-19 10:58N 33°46' W 118°16'0 0.0
2017-Sep-19 10:22N 33°46' W 118°16'0 0.0
2017-Sep-19 08:55N 33°46' W 118°16'0 0.0
2017-Sep-19 08:28N 33°46' W 118°16'0 0.0
2017-Sep-19 07:40N 33°46' W 118°16'0 0.0
2017-Sep-19 07:28N 33°46' W 118°16'0 0.0
2017-Sep-19 06:52N 33°46' W 118°16'0 0.0
2017-Sep-19 06:25N 33°46' W 118°16'0 0.0
2017-Sep-19 05:58N 33°46' W 118°16'0 0.0
2017-Sep-19 05:16N 33°46' W 118°16'0 0.0
2017-Sep-19 04:46N 33°46' W 118°16'0 0.0
2017-Sep-19 04:16N 33°46' W 118°16'0 0.0
2017-Sep-19 03:58N 33°46' W 118°16'0 0.0
2017-Sep-19 03:22N 33°46' W 118°16'0 0.0
2017-Sep-19 02:31N 33°46' W 118°16'0 0.0
2017-Sep-19 02:25N 33°46' W 118°16'0 0.0
2017-Sep-19 01:55N 33°46' W 118°16'0 0.0
2017-Sep-19 01:25N 33°46' W 118°16'0 0.0
2017-Sep-19 00:55N 33°46' W 118°16'0 0.0
2017-Sep-19 00:07N 33°46' W 118°16'0 0.0
2017-Sep-18 23:55N 33°46' W 118°16'0 0.0
2017-Sep-18 23:25N 33°46' W 118°16'0 0.0
2017-Sep-18 22:49N 33°46' W 118°16'0 0.0
2017-Sep-18 22:25N 33°46' W 118°16'0 0.0
2017-Sep-18 21:49N 33°46' W 118°16'0 0.0
2017-Sep-18 21:25N 33°46' W 118°16'0 0.0
2017-Sep-18 20:49N 33°46' W 118°16'0 0.0
2017-Sep-18 20:25N 33°46' W 118°16'0 0.0
2017-Sep-18 19:55N 33°46' W 118°16'0 0.0
2017-Sep-18 19:25N 33°46' W 118°16'0 0.0
2017-Sep-18 18:49N 33°46' W 118°16'0 0.0
2017-Sep-18 18:29N 33°46' W 118°16'0 0.3
2017-Sep-18 18:00N 33°46' W 118°16'1 2.7
2017-Sep-18 17:30N 33°45' W 118°17'3 5.5
2017-Sep-18 17:00N 33°42' W 118°15'4 7.5
2017-Sep-18 16:30N 33°39' W 118°13'510.3
2017-Sep-18 16:00N 33°36' W 118°19'611.8
2017-Sep-18 15:30N 33°38' W 118°25'611.9
2017-Sep-18 15:00N 33°42' W 118°31'712.3
2017-Sep-18 14:28N 33°48' W 118°31'712.0
2017-Sep-18 13:55N 33°55' W 118°30'2 5.8
2017-Sep-18 13:29N 33°55' W 118°27'0 0.2
2017-Sep-18 13:00N 33°55' W 118°27'0 0.2
2017-Sep-18 12:30N 33°55' W 118°27'0 0.0
2017-Sep-18 12:00N 33°55' W 118°27'0 0.0
2017-Sep-18 11:28N 33°55' W 118°27'0 0.0
2017-Sep-18 10:58N 33°55' W 118°27'0 0.0
2017-Sep-18 10:28N 33°55' W 118°27'0 0.0
2017-Sep-18 09:58N 33°55' W 118°27'0 0.0
2017-Sep-18 09:28N 33°55' W 118°27'0 0.0
2017-Sep-18 08:52N 33°55' W 118°27'0 0.0
2017-Sep-18 08:25N 33°55' W 118°27'0 0.0
2017-Sep-18 07:58N 33°55' W 118°27'0 0.0
2017-Sep-18 07:28N 33°55' W 118°27'0 0.0
2017-Sep-18 06:13N 33°55' W 118°27'0 0.0
2017-Sep-18 05:58N 33°55' W 118°27'0 0.0
2017-Sep-18 03:31N 33°55' W 118°27'0 0.0
2017-Sep-18 03:28N 33°55' W 118°27'0 0.0
2017-Sep-18 02:52N 33°55' W 118°27'0 0.0
2017-Sep-18 02:10N 33°55' W 118°27'0 0.0
2017-Sep-18 01:43N 33°55' W 118°27'0 0.0
2017-Sep-18 01:25N 33°55' W 118°27'0 0.0
2017-Sep-18 00:19N 33°55' W 118°27'0 0.0
2017-Sep-17 23:43N 33°55' W 118°27'0 0.0
2017-Sep-17 23:25N 33°55' W 118°27'0 0.0
2017-Sep-17 22:55N 33°55' W 118°27'0 0.0
2017-Sep-17 22:01N 33°55' W 118°27'0 0.0
2017-Sep-17 21:49N 33°55' W 118°27'0 0.0
2017-Sep-17 21:25N 33°55' W 118°27'0 0.0
2017-Sep-17 20:52N 33°55' W 118°27'0 0.0
2017-Sep-17 17:25N 33°55' W 118°27'0 0.0
2017-Sep-17 16:49N 33°55' W 118°27'0 0.0
2017-Sep-17 12:13N 33°55' W 118°27'0 0.0
2017-Sep-17 11:55N 33°55' W 118°27'0 0.0
2017-Sep-17 09:13N 33°55' W 118°27'0 0.0
2017-Sep-17 08:49N 33°55' W 118°27'0 0.0
2017-Sep-17 07:37N 33°55' W 118°27'0 0.0
2017-Sep-17 07:25N 33°55' W 118°27'0 0.0
2017-Sep-17 06:55N 33°55' W 118°27'0 0.0
2017-Sep-17 06:22N 33°55' W 118°27'0 0.0
2017-Sep-17 05:43N 33°55' W 118°27'0 0.0
2017-Sep-17 04:25N 33°55' W 118°27'0 0.0
2017-Sep-17 03:37N 33°55' W 118°27'0 0.0
2017-Sep-17 03:25N 33°55' W 118°27'0 0.0
2017-Sep-17 01:25N 33°55' W 118°27'0 0.0
2017-Sep-17 00:55N 33°55' W 118°27'0 0.0
2017-Sep-16 23:49N 33°55' W 118°27'0 0.0
2017-Sep-16 22:58N 33°55' W 118°27'1 1.2
2017-Sep-16 22:30N 33°54' W 118°27'2 4.0
2017-Sep-16 22:00N 33°53' W 118°29'  

Dump ship's entire track history